Time;durP1;ratioP1;P1;durP2;ratioP2;P2;SDS_P1;SDS_P2;PMS_P1;PMS_P2;Temp;Humidity;BMP_temperature;BMP_pressure;BME280_temperature;BME280_humidity;BME280_pressure;Samples;Min_cycle;Max_cycle;Signal;HPM_P1;HPM_P2
2021/07/02 00:00:49;;;;;;;2.10;1.87;;;10.70;99.90;;;;;;2064215;28;20185;-72
2021/07/02 00:01:51;;;;;;;1.47;1.33;;;10.70;99.90;;;;;;2064281;28;20212;-73
2021/07/02 00:02:51;;;;;;;3.45;2.03;;;10.60;99.90;;;;;;2064204;28;20189;-72
2021/07/02 00:03:52;;;;;;;1.57;1.47;;;10.70;99.90;;;;;;2063996;28;20208;-73
2021/07/02 00:04:53;;;;;;;1.70;1.60;;;10.70;99.90;;;;;;2064935;28;20198;-73
2021/07/02 00:05:54;;;;;;;0.73;0.73;;;10.70;99.90;;;;;;2064180;28;20236;-73
2021/07/02 00:06:54;;;;;;;1.00;1.00;;;10.70;99.90;;;;;;2064426;28;20182;-72
2021/07/02 00:07:55;;;;;;;2.57;1.87;;;10.60;99.90;;;;;;2064819;28;20186;-72
2021/07/02 00:08:56;;;;;;;2.77;1.47;;;10.70;99.90;;;;;;2064994;28;20602;-72
2021/07/02 00:09:56;;;;;;;2.73;2.53;;;10.70;99.90;;;;;;2064027;28;20183;-73
2021/07/02 00:10:57;;;;;;;2.37;2.17;;;10.60;99.90;;;;;;2063805;28;20204;-72
2021/07/02 00:11:58;;;;;;;2.10;0.90;;;10.60;99.90;;;;;;2064139;28;20232;-72
2021/07/02 00:12:58;;;;;;;1.20;1.20;;;10.60;99.90;;;;;;2064593;28;20182;-72
2021/07/02 00:13:59;;;;;;;2.57;1.73;;;10.60;99.90;;;;;;2071662;28;20285;-72
2021/07/02 00:15:01;;;;;;;0.87;0.87;;;10.60;99.90;;;;;;2072337;28;20204;-72
2021/07/02 00:16:02;;;;;;;1.00;1.00;;;10.60;99.90;;;;;;2064711;28;20217;-73
2021/07/02 00:17:03;;;;;;;1.73;1.20;;;10.60;99.90;;;;;;2064864;28;20196;-73
2021/07/02 00:18:04;;;;;;;1.57;1.17;;;10.60;99.90;;;;;;2072353;28;20228;-73
2021/07/02 00:19:05;;;;;;;1.30;1.20;;;10.50;99.90;;;;;;2063988;28;20193;-73
2021/07/02 00:20:06;;;;;;;2.60;1.53;;;10.50;99.90;;;;;;2064046;28;20239;-72
2021/07/02 00:21:07;;;;;;;1.13;1.13;;;10.50;99.90;;;;;;2064730;28;20185;-73
2021/07/02 00:22:08;;;;;;;0.70;0.70;;;10.50;99.90;;;;;;2064690;28;20189;-72
2021/07/02 00:23:08;;;;;;;2.50;1.90;;;10.50;99.90;;;;;;2072139;28;20203;-72
2021/07/02 00:24:09;;;;;;;1.73;1.33;;;10.40;99.90;;;;;;2063981;28;20246;-73
2021/07/02 00:25:11;;;;;;;1.27;1.27;;;10.40;99.90;;;;;;2063979;28;20233;-72
2021/07/02 00:26:11;;;;;;;1.90;1.80;;;10.50;99.90;;;;;;2064117;28;20688;-72
2021/07/02 00:27:12;;;;;;;0.97;0.97;;;10.40;99.90;;;;;;2056046;28;20175;-73
2021/07/02 00:28:13;;;;;;;1.77;1.37;;;10.40;99.90;;;;;;2056162;28;20555;-73
2021/07/02 00:29:13;;;;;;;0.70;0.70;;;10.40;99.90;;;;;;2056180;28;20227;-73
2021/07/02 00:30:15;;;;;;;1.87;1.77;;;10.30;99.90;;;;;;2064038;28;20264;-72
2021/07/02 00:31:15;;;;;;;5.68;1.77;;;10.30;99.90;;;;;;2072117;28;20192;-72
2021/07/02 00:32:16;;;;;;;9.83;2.63;;;10.30;99.90;;;;;;2072212;28;20274;-72
2021/07/02 00:33:17;;;;;;;1.70;1.60;;;10.30;99.90;;;;;;2072001;28;20223;-73
2021/07/02 00:34:17;;;;;;;1.53;1.43;;;10.30;99.90;;;;;;2072152;28;20602;-72
2021/07/02 00:35:18;;;;;;;1.70;1.43;;;10.20;99.90;;;;;;2064028;28;20179;-72
2021/07/02 00:36:19;;;;;;;2.07;1.97;;;10.20;99.90;;;;;;2072145;28;20674;-72
2021/07/02 00:37:19;;;;;;;1.43;1.33;;;10.20;99.90;;;;;;2072067;28;20201;-72
2021/07/02 00:38:20;;;;;;;1.87;1.40;;;10.20;99.90;;;;;;2064130;28;20184;-72
2021/07/02 00:39:21;;;;;;;1.07;1.07;;;10.20;99.90;;;;;;2064057;28;20182;-72
2021/07/02 00:40:22;;;;;;;2.97;1.53;;;10.20;99.90;;;;;;2064131;28;20177;-73
2021/07/02 00:41:22;;;;;;;1.53;1.43;;;10.10;99.90;;;;;;2063899;28;20191;-73
2021/07/02 00:42:23;;;;;;;3.87;1.27;;;10.10;99.90;;;;;;2064158;28;20569;-73
2021/07/02 00:43:24;;;;;;;4.43;1.90;;;10.10;99.90;;;;;;2063833;28;20704;-73
2021/07/02 00:44:57;;;;;;;3.47;2.23;;;10.10;99.90;;;;;;2071974;28;20765;-73
2021/07/02 00:45:57;;;;;;;2.03;1.45;;;10.10;99.90;;;;;;2067227;28;20347;-73
2021/07/02 00:46:58;;;;;;;1.60;1.33;;;10.10;99.90;;;;;;2071918;28;20188;-72
2021/07/02 00:48:00;;;;;;;2.00;1.60;;;10.10;99.90;;;;;;2072115;28;20177;-72
2021/07/02 00:49:02;;;;;;;1.70;1.60;;;10.10;99.90;;;;;;2064077;28;20188;-72
2021/07/02 00:50:07;;;;;;;1.67;1.58;;;10.10;99.90;;;;;;2056083;28;20258;-73
2021/07/02 00:51:07;;;;;;;1.23;1.15;;;10.10;99.90;;;;;;2056527;28;20195;-73
2021/07/02 00:52:11;;;;;;;1.23;1.17;;;10.10;99.90;;;;;;2063890;28;20666;-73
2021/07/02 00:53:13;;;;;;;3.55;1.42;;;10.10;99.90;;;;;;2064393;28;20545;-72
2021/07/02 00:54:13;;;;;;;2.90;2.13;;;10.00;99.90;;;;;;2064463;28;20201;-73
2021/07/02 00:55:14;;;;;;;1.40;1.30;;;10.10;99.90;;;;;;2063957;28;20193;-73
2021/07/02 00:56:19;;;;;;;2.43;1.63;;;10.10;99.90;;;;;;2064819;28;20194;-73
2021/07/02 00:57:22;;;;;;;2.95;1.85;;;10.10;99.90;;;;;;2073640;28;20707;-73
2021/07/02 00:58:25;;;;;;;1.23;1.02;;;10.10;99.90;;;;;;2073537;28;20192;-72
2021/07/02 00:59:26;;;;;;;2.47;1.17;;;10.20;99.90;;;;;;2065565;28;20231;-73
2021/07/02 01:00:26;;;;;;;1.67;1.57;;;10.10;99.90;;;;;;2057483;28;20183;-73
2021/07/02 01:01:27;;;;;;;1.87;1.47;;;10.10;99.90;;;;;;2057618;28;20263;-73
2021/07/02 01:02:28;;;;;;;1.23;1.23;;;10.10;99.90;;;;;;2066314;28;20185;-74
2021/07/02 01:03:28;;;;;;;1.87;1.57;;;10.10;99.90;;;;;;2066575;28;20174;-72
2021/07/02 01:04:30;;;;;;;1.30;1.20;;;10.20;99.90;;;;;;2075632;28;20262;-73
2021/07/02 01:05:30;;;;;;;2.00;1.60;;;10.10;99.90;;;;;;2073725;28;20177;-72
2021/07/02 01:06:31;;;;;;;2.03;1.93;;;10.20;99.90;;;;;;2066137;28;20195;-73
2021/07/02 01:07:32;;;;;;;1.07;1.03;;;10.20;99.90;;;;;;2066185;28;20210;-73
2021/07/02 01:08:35;;;;;;;3.05;2.58;;;10.10;99.90;;;;;;2073580;28;20212;-73
2021/07/02 01:09:35;;;;;;;3.22;2.25;;;10.10;99.90;;;;;;2073476;28;20189;-73
2021/07/02 01:10:37;;;;;;;1.63;1.53;;;10.10;99.90;;;;;;2065523;28;20297;-73
2021/07/02 01:11:38;;;;;;;1.90;1.80;;;10.10;99.90;;;;;;2073646;28;20192;-73
2021/07/02 01:12:40;;;;;;;0.85;0.77;;;10.10;99.90;;;;;;2065494;28;20659;-72
2021/07/02 01:13:41;;;;;;;1.50;1.40;;;10.10;99.90;;;;;;2065246;28;20189;-73
2021/07/02 01:14:41;;;;;;;1.07;1.07;;;10.00;99.90;;;;;;2065389;28;20183;-73
2021/07/02 01:15:42;;;;;;;1.33;1.23;;;10.00;99.90;;;;;;2057445;28;20628;-73
2021/07/02 01:16:43;;;;;;;1.63;1.53;;;10.00;99.90;;;;;;2057458;28;20353;-73
2021/07/02 01:17:44;;;;;;;0.60;0.60;;;10.00;99.90;;;;;;2057461;28;20272;-73
2021/07/02 01:18:44;;;;;;;1.27;1.20;;;10.00;99.90;;;;;;2065319;28;20182;-73
2021/07/02 01:19:53;;;;;;;1.93;1.83;;;10.00;99.90;;;;;;2057249;28;20173;-73
2021/07/02 01:20:56;;;;;;;1.80;1.00;;;10.00;99.90;;;;;;2058441;28;20655;-73
2021/07/02 01:21:56;;;;;;;2.33;1.48;;;10.00;99.90;;;;;;2057670;28;20647;-73
2021/07/02 01:22:57;;;;;;;1.87;1.33;;;10.00;99.90;;;;;;2065405;28;20205;-73
2021/07/02 01:23:58;;;;;;;1.50;1.40;;;10.00;99.90;;;;;;2065225;28;20200;-73
2021/07/02 01:24:59;;;;;;;1.90;1.63;;;10.00;99.90;;;;;;2057322;28;20421;-73
2021/07/02 01:26:00;;;;;;;2.13;2.00;;;10.00;99.90;;;;;;2065476;28;20185;-73
2021/07/02 01:27:01;;;;;;;1.80;1.33;;;10.00;99.90;;;;;;2065349;28;20174;-73
2021/07/02 01:28:03;;;;;;;1.20;1.08;;;10.00;99.90;;;;;;2057464;28;20261;-73
2021/07/02 01:29:04;;;;;;;1.52;1.27;;;10.00;99.90;;;;;;2057399;28;20184;-73
2021/07/02 01:30:08;;;;;;;1.13;1.13;;;10.00;99.90;;;;;;2065411;28;20289;-73
2021/07/02 01:31:09;;;;;;;2.47;1.95;;;10.00;99.90;;;;;;2065288;28;20205;-73
2021/07/02 01:32:10;;;;;;;2.20;1.80;;;10.00;99.90;;;;;;2057460;28;20177;-72
2021/07/02 01:33:13;;;;;;;5.85;2.28;;;10.00;99.90;;;;;;2057010;28;20186;-73
2021/07/02 01:34:13;;;;;;;1.45;1.35;;;10.00;99.90;;;;;;2057533;28;20199;-73
2021/07/02 01:35:15;;;;;;;3.20;2.10;;;10.00;99.90;;;;;;2057319;28;20188;-73
2021/07/02 01:36:22;;;;;;;3.33;1.55;;;9.90;99.90;;;;;;2057292;28;20254;-73
2021/07/02 01:37:23;;;;;;;1.95;1.45;;;10.00;99.90;;;;;;2065348;28;20193;-73
2021/07/02 01:38:23;;;;;;;2.03;1.50;;;9.90;99.90;;;;;;2065953;28;20660;-73
2021/07/02 01:39:24;;;;;;;1.17;1.10;;;10.00;99.90;;;;;;2065883;28;20186;-73
2021/07/02 01:40:25;;;;;;;2.20;1.83;;;10.00;99.90;;;;;;2073460;28;20172;-73
2021/07/02 01:41:25;;;;;;;1.20;1.10;;;10.00;99.90;;;;;;2073327;28;20215;-73
2021/07/02 01:42:26;;;;;;;1.17;1.17;;;10.00;99.90;;;;;;2073388;28;20188;-73
2021/07/02 01:43:27;;;;;;;3.47;1.43;;;10.00;99.90;;;;;;2073202;28;20178;-73
2021/07/02 01:44:27;;;;;;;3.57;1.97;;;10.00;99.90;;;;;;2073358;28;20252;-73
2021/07/02 01:45:28;;;;;;;1.67;1.57;;;10.00;99.90;;;;;;2073426;28;20180;-73
2021/07/02 01:46:29;;;;;;;2.17;2.07;;;9.90;99.90;;;;;;2065918;28;20184;-73
2021/07/02 01:47:30;;;;;;;1.67;1.57;;;9.90;99.90;;;;;;2065814;28;20645;-73
2021/07/02 01:48:31;;;;;;;1.40;1.30;;;9.90;99.90;;;;;;2073383;28;20687;-73
2021/07/02 01:49:32;;;;;;;1.50;1.40;;;9.80;99.90;;;;;;2073403;28;20178;-73
2021/07/02 01:50:33;;;;;;;2.67;2.47;;;9.80;99.90;;;;;;2065282;28;20510;-73
2021/07/02 01:51:33;;;;;;;1.60;1.50;;;9.90;99.90;;;;;;2065905;28;20207;-72
2021/07/02 01:52:34;;;;;;;1.27;1.27;;;9.90;99.90;;;;;;2065765;28;20268;-73
2021/07/02 01:53:36;;;;;;;2.73;1.40;;;9.90;99.90;;;;;;2065637;28;20844;-73
2021/07/02 01:54:36;;;;;;;1.88;1.45;;;9.90;99.90;;;;;;2065154;28;20727;-73
2021/07/02 01:55:37;;;;;;;0.87;0.60;;;9.90;99.90;;;;;;2065199;28;20213;-73
2021/07/02 01:56:38;;;;;;;0.67;0.67;;;9.90;99.90;;;;;;2065885;28;20559;-73
2021/07/02 01:57:38;;;;;;;0.93;0.93;;;9.90;99.90;;;;;;2065745;28;20294;-73
2021/07/02 01:58:39;;;;;;;1.83;1.43;;;9.90;99.90;;;;;;2065893;28;20725;-73
2021/07/02 01:59:40;;;;;;;1.87;1.77;;;9.90;99.90;;;;;;2065218;28;20183;-73
2021/07/02 02:00:42;;;;;;;0.83;0.83;;;9.90;99.90;;;;;;2065327;28;20344;-73
2021/07/02 02:01:45;;;;;;;1.42;1.35;;;9.90;99.90;;;;;;2065971;28;20174;-73
2021/07/02 02:02:46;;;;;;;0.77;0.77;;;9.90;99.90;;;;;;2073284;28;20255;-73
2021/07/02 02:03:47;;;;;;;1.60;1.50;;;10.00;99.90;;;;;;2073096;28;20172;-73
2021/07/02 02:04:48;;;;;;;1.65;1.42;;;10.00;99.90;;;;;;2065237;28;20252;-73
2021/07/02 02:05:49;;;;;;;1.57;1.47;;;10.00;99.90;;;;;;2057126;28;20649;-72
2021/07/02 02:06:50;;;;;;;2.13;1.40;;;10.00;99.90;;;;;;2056927;28;20188;-73
2021/07/02 02:07:50;;;;;;;1.47;1.37;;;10.00;99.90;;;;;;2065241;28;20181;-73
2021/07/02 02:08:51;;;;;;;2.17;1.67;;;10.10;99.90;;;;;;2065034;28;20702;-73
2021/07/02 02:09:53;;;;;;;1.67;1.57;;;10.10;99.90;;;;;;2065798;28;20177;-73
2021/07/02 02:10:54;;;;;;;1.05;1.05;;;10.10;99.90;;;;;;2065707;28;20185;-73
2021/07/02 02:11:54;;;;;;;1.87;1.77;;;10.10;99.90;;;;;;2073277;28;20185;-73
2021/07/02 02:12:55;;;;;;;1.17;1.13;;;10.10;99.90;;;;;;2073201;28;20174;-73
2021/07/02 02:13:56;;;;;;;1.43;1.43;;;10.10;99.90;;;;;;2065336;28;20258;-72
2021/07/02 02:14:57;;;;;;;6.20;2.00;;;10.10;99.90;;;;;;2065676;28;20550;-73
2021/07/02 02:15:58;;;;;;;2.03;1.83;;;10.20;99.90;;;;;;2065040;28;20185;-73
2021/07/02 02:16:59;;;;;;;1.77;1.67;;;10.20;99.90;;;;;;2064992;28;20180;-73
2021/07/02 02:18:00;;;;;;;1.98;1.15;;;10.20;99.90;;;;;;2065079;28;20254;-73
2021/07/02 02:19:01;;;;;;;1.42;1.10;;;10.20;99.90;;;;;;2064877;28;20177;-73
2021/07/02 02:20:05;;;;;;;1.07;1.07;;;10.20;99.90;;;;;;2065659;28;20178;-73
2021/07/02 02:21:06;;;;;;;2.10;1.85;;;10.20;99.90;;;;;;2072895;28;20596;-73
2021/07/02 02:22:07;;;;;;;2.23;1.13;;;10.20;99.90;;;;;;2073115;28;20269;-73
2021/07/02 02:23:08;;;;;;;1.30;1.23;;;10.20;99.90;;;;;;2064832;28;20188;-73
2021/07/02 02:24:08;;;;;;;1.60;1.50;;;10.20;99.90;;;;;;2072881;28;20208;-73
2021/07/02 02:25:10;;;;;;;3.07;2.03;;;10.30;99.90;;;;;;2073083;28;20239;-73
2021/07/02 02:26:11;;;;;;;1.15;1.15;;;10.30;99.90;;;;;;2073030;28;20184;-73
2021/07/02 02:27:11;;;;;;;1.00;0.93;;;10.20;99.90;;;;;;2073045;28;20170;-73
2021/07/02 02:28:12;;;;;;;1.73;1.63;;;10.30;99.90;;;;;;2065498;28;20237;-73
2021/07/02 02:29:13;;;;;;;0.83;0.83;;;10.20;99.90;;;;;;2065482;28;20193;-73
2021/07/02 02:30:15;;;;;;;0.90;0.90;;;10.20;99.90;;;;;;2072990;28;20215;-74
2021/07/02 02:31:15;;;;;;;7.30;1.27;;;10.30;99.90;;;;;;2072920;28;20179;-73
2021/07/02 02:32:17;;;;;;;2.30;2.10;;;10.30;99.90;;;;;;2065468;28;20680;-73
2021/07/02 02:33:17;;;;;;;0.90;0.90;;;10.30;99.90;;;;;;2072778;28;20177;-73
2021/07/02 02:34:18;;;;;;;1.53;1.43;;;10.20;99.90;;;;;;2072918;28;20674;-73
2021/07/02 02:35:19;;;;;;;3.17;1.77;;;10.10;99.90;;;;;;2072926;28;20182;-73
2021/07/02 02:36:21;;;;;;;1.03;1.03;;;10.10;99.90;;;;;;2072957;28;20317;-73
2021/07/02 02:37:22;;;;;;;0.93;0.85;;;10.10;99.90;;;;;;2072944;28;20254;-73
2021/07/02 02:38:22;;;;;;;1.73;1.63;;;10.10;99.90;;;;;;2072965;28;20228;-73
2021/07/02 02:39:23;;;;;;;1.23;1.23;;;10.00;99.90;;;;;;2073058;28;20247;-73
2021/07/02 02:40:24;;;;;;;0.70;0.70;;;10.00;99.90;;;;;;2072820;28;20181;-72
2021/07/02 02:41:24;;;;;;;1.40;1.30;;;10.00;99.90;;;;;;2065521;28;20178;-73
2021/07/02 02:42:25;;;;;;;1.17;1.17;;;9.90;99.90;;;;;;2065447;28;20540;-73
2021/07/02 02:43:26;;;;;;;1.13;1.13;;;9.90;99.90;;;;;;2072914;28;20264;-73
2021/07/02 02:44:27;;;;;;;2.40;1.90;;;10.00;99.90;;;;;;2073450;28;20206;-73
2021/07/02 02:45:28;;;;;;;1.33;0.70;;;9.90;99.90;;;;;;2065803;28;20181;-73
2021/07/02 02:46:29;;;;;;;2.07;1.23;;;9.90;99.90;;;;;;2073053;28;20179;-73
2021/07/02 02:47:30;;;;;;;2.10;1.40;;;9.90;99.90;;;;;;2064630;28;20192;-73
2021/07/02 02:48:31;;;;;;;0.77;0.77;;;9.90;99.90;;;;;;2064779;28;20617;-73
2021/07/02 02:49:32;;;;;;;1.40;1.30;;;9.80;99.90;;;;;;2072878;28;20187;-73
2021/07/02 02:50:33;;;;;;;2.27;1.47;;;9.80;99.90;;;;;;2064751;28;20254;-73
2021/07/02 02:51:33;;;;;;;6.33;2.00;;;9.80;99.90;;;;;;2063218;28;20194;-73
2021/07/02 02:52:34;;;;;;;1.40;1.33;;;9.80;99.90;;;;;;2065500;28;20193;-73
2021/07/02 02:53:35;;;;;;;2.43;1.27;;;9.80;99.90;;;;;;2065142;28;20225;-73
2021/07/02 02:54:36;;;;;;;2.10;1.37;;;9.80;99.90;;;;;;2065402;28;20209;-73
2021/07/02 02:55:36;;;;;;;1.23;1.13;;;9.80;99.90;;;;;;2065304;28;20195;-73
2021/07/02 02:56:37;;;;;;;0.70;0.70;;;9.70;99.90;;;;;;2065480;28;20167;-73
2021/07/02 02:57:38;;;;;;;0.97;0.97;;;9.70;99.90;;;;;;2067803;28;20212;-73
2021/07/02 02:58:38;;;;;;;1.77;1.33;;;9.70;99.90;;;;;;2065424;28;20214;-73
2021/07/02 02:59:39;;;;;;;1.50;1.40;;;9.70;99.90;;;;;;2072903;28;20190;-73
2021/07/02 03:00:40;;;;;;;1.50;1.40;;;9.70;99.90;;;;;;2072893;28;20176;-73
2021/07/02 03:01:40;;;;;;;2.57;1.13;;;9.70;99.90;;;;;;2064854;28;20262;-72
2021/07/02 03:02:41;;;;;;;0.93;0.83;;;9.70;99.90;;;;;;2065442;28;20187;-73
2021/07/02 03:03:42;;;;;;;1.33;1.27;;;9.70;99.90;;;;;;2065198;28;20181;-73
2021/07/02 03:04:42;;;;;;;1.87;1.77;;;9.70;99.90;;;;;;2065388;28;20668;-73
2021/07/02 03:05:43;;;;;;;1.63;1.30;;;9.70;99.90;;;;;;2065455;28;20178;-73
2021/07/02 03:06:44;;;;;;;1.70;1.60;;;9.70;99.90;;;;;;2072895;28;20687;-73
2021/07/02 03:07:44;;;;;;;0.87;0.87;;;9.70;99.90;;;;;;2072828;28;20187;-73
2021/07/02 03:08:45;;;;;;;1.13;1.13;;;9.70;99.90;;;;;;2064658;28;20313;-73
2021/07/02 03:09:46;;;;;;;1.50;1.40;;;9.60;99.90;;;;;;2065012;28;20189;-73
2021/07/02 03:10:47;;;;;;;1.63;1.47;;;9.70;99.90;;;;;;2072945;28;20268;-73
2021/07/02 03:11:51;;;;;;;1.27;1.20;;;9.70;99.90;;;;;;2064650;28;20703;-73
2021/07/02 03:12:51;;;;;;;2.70;0.95;;;9.70;99.90;;;;;;2056934;28;20690;-73
2021/07/02 03:13:52;;;;;;;1.17;1.07;;;9.70;99.90;;;;;;2056946;28;20185;-73
2021/07/02 03:14:53;;;;;;;1.83;1.43;;;9.70;99.90;;;;;;2064673;28;20271;-73
2021/07/02 03:15:54;;;;;;;1.40;1.30;;;9.70;99.90;;;;;;2072883;28;20180;-73
2021/07/02 03:16:55;;;;;;;0.97;0.97;;;9.70;99.90;;;;;;2072631;28;20180;-73
2021/07/02 03:17:55;;;;;;;1.70;1.10;;;9.70;99.90;;;;;;2064650;28;20206;-73
2021/07/02 03:18:56;;;;;;;1.43;1.37;;;9.70;99.90;;;;;;2072022;28;20533;-73
2021/07/02 03:19:57;;;;;;;1.27;1.17;;;9.70;99.90;;;;;;2064599;28;20268;-72
2021/07/02 03:20:58;;;;;;;2.20;1.43;;;9.70;99.90;;;;;;2056714;28;20181;-73
2021/07/02 03:21:59;;;;;;;1.27;0.93;;;9.70;99.90;;;;;;2064713;28;20181;-73
2021/07/02 03:22:59;;;;;;;1.33;1.13;;;9.70;99.90;;;;;;2065087;28;20825;-73
2021/07/02 03:24:00;;;;;;;1.03;1.00;;;9.70;99.90;;;;;;2064967;28;20192;-73
2021/07/02 03:25:01;;;;;;;0.87;0.77;;;9.70;99.90;;;;;;2065234;28;20188;-73
2021/07/02 03:26:02;;;;;;;0.90;0.90;;;9.70;99.90;;;;;;2072885;28;20212;-72
2021/07/02 03:27:03;;;;;;;1.43;1.33;;;9.70;99.90;;;;;;2056523;28;20181;-72
2021/07/02 03:28:04;;;;;;;0.77;0.77;;;9.60;99.90;;;;;;2056657;28;20682;-72
2021/07/02 03:29:05;;;;;;;1.20;1.17;;;9.60;99.90;;;;;;2064446;28;20190;-72
2021/07/02 03:30:09;;;;;;;3.88;1.17;;;9.60;99.90;;;;;;2072767;28;20777;-72
2021/07/02 03:31:10;;;;;;;0.70;0.70;;;9.60;99.90;;;;;;2064529;28;20218;-72
2021/07/02 03:32:11;;;;;;;1.53;1.43;;;9.60;99.90;;;;;;2056568;28;20178;-73
2021/07/02 03:33:11;;;;;;;0.73;0.73;;;9.60;99.90;;;;;;2064289;28;20286;-73
2021/07/02 03:34:12;;;;;;;1.20;0.97;;;9.60;99.90;;;;;;2065079;28;20196;-73
2021/07/02 03:35:13;;;;;;;1.90;1.23;;;9.60;99.90;;;;;;2064429;28;20265;-72
2021/07/02 03:36:14;;;;;;;0.50;0.50;;;9.60;99.90;;;;;;2056657;28;20407;-72
2021/07/02 03:37:16;;;;;;;1.77;1.27;;;9.60;99.90;;;;;;2056389;28;20183;-73
2021/07/02 03:38:17;;;;;;;1.08;1.08;;;9.60;99.90;;;;;;2056774;28;20190;-73
2021/07/02 03:39:17;;;;;;;0.73;0.73;;;9.70;99.90;;;;;;2064444;28;20191;-73
2021/07/02 03:40:18;;;;;;;1.10;1.10;;;9.70;99.90;;;;;;2072644;28;20255;-72
2021/07/02 03:41:19;;;;;;;2.57;1.47;;;9.70;99.90;;;;;;2072773;28;20243;-72
2021/07/02 03:42:19;;;;;;;3.03;2.07;;;9.70;99.90;;;;;;2072619;28;20675;-72
2021/07/02 03:43:20;;;;;;;1.20;1.20;;;9.70;99.90;;;;;;2064949;28;20177;-73
2021/07/02 03:44:21;;;;;;;1.60;1.50;;;9.70;99.90;;;;;;2064889;28;20204;-73
2021/07/02 03:45:21;;;;;;;1.07;1.07;;;9.70;99.90;;;;;;2065126;28;20215;-73
2021/07/02 03:46:22;;;;;;;1.17;1.00;;;9.80;99.90;;;;;;2064997;28;20177;-72
2021/07/02 03:47:23;;;;;;;1.17;1.13;;;9.80;99.90;;;;;;2065030;28;20563;-73
2021/07/02 03:48:24;;;;;;;1.30;1.27;;;9.70;99.90;;;;;;2065012;28;20216;-73
2021/07/02 03:49:25;;;;;;;1.80;1.43;;;9.70;99.90;;;;;;2065026;28;20197;-73
2021/07/02 03:50:26;;;;;;;4.70;1.83;;;9.60;99.90;;;;;;2064251;28;20185;-72
2021/07/02 03:51:27;;;;;;;1.50;1.40;;;9.50;99.90;;;;;;2064493;28;20223;-73
2021/07/02 03:52:29;;;;;;;0.90;0.90;;;9.50;99.90;;;;;;2064972;28;20196;-72
2021/07/02 03:53:29;;;;;;;1.80;1.17;;;9.50;99.90;;;;;;2072360;28;20673;-72
2021/07/02 03:54:30;;;;;;;1.57;1.47;;;9.50;99.90;;;;;;2072317;28;20199;-72
2021/07/02 03:55:31;;;;;;;1.00;1.00;;;9.40;99.90;;;;;;2072353;28;20188;-72
2021/07/02 03:56:31;;;;;;;0.97;0.70;;;9.40;99.90;;;;;;2072428;28;20245;-72
2021/07/02 03:57:32;;;;;;;2.20;1.70;;;9.40;99.90;;;;;;2064904;28;20201;-72
2021/07/02 03:58:33;;;;;;;1.10;1.03;;;9.50;99.90;;;;;;2064212;28;20240;-73
2021/07/02 03:59:34;;;;;;;1.40;1.33;;;9.50;99.90;;;;;;2056285;28;20187;-72
2021/07/02 04:00:35;;;;;;;1.47;1.37;;;9.50;99.90;;;;;;2064226;28;20193;-73
2021/07/02 04:01:35;;;;;;;1.23;0.90;;;9.50;99.90;;;;;;2064898;28;20243;-73
2021/07/02 04:02:36;;;;;;;0.90;0.90;;;9.60;99.90;;;;;;2064861;28;20181;-72
2021/07/02 04:03:37;;;;;;;1.33;1.30;;;9.60;99.90;;;;;;2064609;28;20254;-73
2021/07/02 04:04:39;;;;;;;0.73;0.73;;;9.60;99.90;;;;;;2064757;28;20241;-73
2021/07/02 04:05:43;;;;;;;1.23;1.13;;;9.60;99.90;;;;;;2064820;28;20270;-72
2021/07/02 04:06:44;;;;;;;0.80;0.80;;;9.70;99.90;;;;;;2072286;28;20182;-72
2021/07/02 04:07:44;;;;;;;2.63;1.43;;;9.60;99.90;;;;;;2064174;28;20219;-73
2021/07/02 04:08:45;;;;;;;1.70;1.60;;;9.60;99.90;;;;;;2056180;28;20222;-72
2021/07/02 04:09:46;;;;;;;0.80;0.80;;;9.70;99.90;;;;;;2056229;28;20207;-73
2021/07/02 04:10:46;;;;;;;2.00;1.20;;;9.70;99.90;;;;;;2056122;28;20651;-73
2021/07/02 04:11:47;;;;;;;1.30;1.20;;;9.70;99.90;;;;;;2056160;28;20314;-72
2021/07/02 04:12:48;;;;;;;1.53;1.33;;;9.70;99.90;;;;;;2056122;28;20213;-72
2021/07/02 04:13:49;;;;;;;1.30;1.03;;;9.70;99.90;;;;;;2055835;28;20183;-73
2021/07/02 04:14:49;;;;;;;1.10;1.03;;;9.70;99.90;;;;;;2064176;28;20430;-72
2021/07/02 04:15:53;;;;;;;0.47;0.47;;;9.70;99.90;;;;;;2072346;28;20179;-72
2021/07/02 04:16:54;;;;;;;1.80;1.70;;;9.70;99.90;;;;;;2072073;28;20250;-72
2021/07/02 04:17:55;;;;;;;0.55;0.55;;;9.80;99.90;;;;;;2064096;28;20210;-72
2021/07/02 04:18:56;;;;;;;1.27;0.90;;;9.80;99.90;;;;;;2064148;28;20199;-73
2021/07/02 04:19:56;;;;;;;1.47;1.13;;;9.80;99.90;;;;;;2072321;28;20660;-73
2021/07/02 04:20:57;;;;;;;3.97;1.47;;;9.90;99.90;;;;;;2072219;28;20710;-73
2021/07/02 04:21:58;;;;;;;1.67;1.40;;;9.90;99.90;;;;;;2072198;28;20179;-73
2021/07/02 04:22:59;;;;;;;1.47;1.37;;;10.00;99.90;;;;;;2072252;28;20279;-73
2021/07/02 04:23:59;;;;;;;0.80;0.80;;;10.00;99.90;;;;;;2064471;28;20200;-73
2021/07/02 04:25:00;;;;;;;1.33;1.23;;;10.00;99.90;;;;;;2064034;28;20640;-73
2021/07/02 04:26:01;;;;;;;0.87;0.87;;;10.00;99.90;;;;;;2064110;28;20191;-72
2021/07/02 04:27:02;;;;;;;17.20;1.03;;;10.00;99.90;;;;;;2064618;28;20542;-72
2021/07/02 04:28:03;;;;;;;1.13;1.02;;;10.00;99.90;;;;;;2072132;28;20648;-73
2021/07/02 04:29:04;;;;;;;1.30;1.03;;;10.10;99.90;;;;;;2072371;28;20196;-73
2021/07/02 04:30:06;;;;;;;3.78;1.10;;;10.10;99.90;;;;;;2072144;28;20207;-73
2021/07/02 04:31:07;;;;;;;1.15;1.15;;;10.20;99.90;;;;;;2072035;28;20220;-73
2021/07/02 04:32:08;;;;;;;3.55;2.30;;;10.20;99.90;;;;;;2063963;28;20195;-72
2021/07/02 04:33:09;;;;;;;1.40;1.30;;;10.30;99.90;;;;;;2063910;28;20220;-73
2021/07/02 04:34:09;;;;;;;1.40;1.33;;;10.30;99.90;;;;;;2071917;28;20215;-72
2021/07/02 04:35:11;;;;;;;1.47;1.37;;;10.30;99.90;;;;;;2064047;28;20177;-73
2021/07/02 04:36:11;;;;;;;1.42;1.30;;;10.30;99.90;;;;;;2056164;28;20176;-72
2021/07/02 04:37:12;;;;;;;2.87;1.23;;;10.40;99.90;;;;;;2072182;28;20642;-73
2021/07/02 04:38:13;;;;;;;1.33;1.23;;;10.40;99.90;;;;;;2064935;28;20260;-73
2021/07/02 04:39:14;;;;;;;1.27;1.20;;;10.40;99.90;;;;;;2064964;28;20197;-72
2021/07/02 04:40:15;;;;;;;0.50;0.50;;;10.30;99.90;;;;;;2075004;28;20177;-72
2021/07/02 04:41:15;;;;;;;1.08;1.05;;;10.40;99.90;;;;;;2065431;28;20186;-72
2021/07/02 04:42:16;;;;;;;1.93;1.20;;;10.40;99.90;;;;;;2072853;28;20646;-72
2021/07/02 04:43:17;;;;;;;0.70;0.70;;;10.50;99.90;;;;;;2056476;28;20241;-72
2021/07/02 04:44:17;;;;;;;1.40;1.30;;;10.50;99.90;;;;;;2056858;28;20194;-72
2021/07/02 04:45:18;;;;;;;1.30;1.20;;;10.60;99.90;;;;;;2073019;28;20666;-75
2021/07/02 04:46:19;;;;;;;1.30;1.17;;;10.60;99.90;;;;;;2065135;28;20178;-74
2021/07/02 04:47:20;;;;;;;1.63;1.53;;;10.70;99.90;;;;;;2064153;28;20182;-74
2021/07/02 04:48:20;;;;;;;0.77;0.77;;;10.80;99.90;;;;;;2056191;28;20212;-73
2021/07/02 04:49:21;;;;;;;1.23;1.13;;;10.80;99.90;;;;;;2064221;28;20178;-73
2021/07/02 04:50:22;;;;;;;1.57;1.47;;;10.80;99.90;;;;;;2064161;28;20267;-73
2021/07/02 04:51:23;;;;;;;3.27;1.67;;;10.80;99.90;;;;;;2056146;28;20582;-73
2021/07/02 04:52:23;;;;;;;1.02;0.93;;;10.80;99.90;;;;;;2048049;28;20189;-72
2021/07/02 04:53:24;;;;;;;1.50;1.40;;;10.90;99.90;;;;;;2055891;28;20641;-73
2021/07/02 04:54:25;;;;;;;1.03;1.03;;;10.90;99.90;;;;;;2064495;28;20201;-72
2021/07/02 04:55:26;;;;;;;2.63;1.65;;;11.00;99.90;;;;;;2064176;28;20181;-72
2021/07/02 04:56:27;;;;;;;1.70;1.60;;;11.00;99.90;;;;;;2055887;28;20608;-73
2021/07/02 04:57:27;;;;;;;0.93;0.87;;;10.90;99.90;;;;;;2055934;28;20237;-73
2021/07/02 04:58:28;;;;;;;1.47;1.37;;;10.90;99.90;;;;;;2056249;28;20229;-72
2021/07/02 04:59:33;;;;;;;2.17;1.37;;;10.90;99.90;;;;;;2049911;28;20262;-72
2021/07/02 05:00:34;;;;;;;1.25;1.17;;;11.00;99.90;;;;;;2064647;28;20197;-73
2021/07/02 05:01:35;;;;;;;0.97;0.97;;;11.00;99.90;;;;;;2063966;28;20179;-74
2021/07/02 05:02:35;;;;;;;1.50;1.20;;;11.00;99.90;;;;;;2064000;28;20703;-74
2021/07/02 05:03:36;;;;;;;0.90;0.90;;;11.00;99.90;;;;;;2063745;28;20599;-73
2021/07/02 05:04:37;;;;;;;1.33;1.23;;;11.00;99.90;;;;;;2063863;28;20217;-73
2021/07/02 05:05:37;;;;;;;1.63;1.53;;;11.00;99.90;;;;;;2072027;28;20206;-73
2021/07/02 05:06:39;;;;;;;1.17;1.07;;;11.10;99.90;;;;;;2064002;28;20189;-72
2021/07/02 05:07:39;;;;;;;0.90;0.90;;;11.10;99.90;;;;;;2063847;28;20284;-72
2021/07/02 05:08:40;;;;;;;1.17;1.13;;;11.10;99.90;;;;;;2063973;28;20653;-72
2021/07/02 05:09:41;;;;;;;0.90;0.90;;;11.10;99.90;;;;;;2055833;28;20599;-72
2021/07/02 05:10:42;;;;;;;1.27;1.20;;;11.10;99.90;;;;;;2063919;28;20210;-72
2021/07/02 05:11:43;;;;;;;2.70;1.45;;;11.10;99.90;;;;;;2064515;28;20196;-72
2021/07/02 05:12:44;;;;;;;2.90;1.50;;;11.20;99.90;;;;;;2064597;28;20188;-71
2021/07/02 05:13:45;;;;;;;1.43;1.33;;;11.20;99.90;;;;;;2063558;28;20723;-72
2021/07/02 05:14:46;;;;;;;1.00;0.97;;;11.10;99.90;;;;;;2055948;28;20214;-71
2021/07/02 05:15:48;;;;;;;1.08;1.05;;;11.10;99.90;;;;;;2055848;28;20178;-72
2021/07/02 05:16:48;;;;;;;2.65;1.95;;;11.20;99.90;;;;;;2056226;28;20662;-73
2021/07/02 05:17:49;;;;;;;1.73;1.63;;;11.20;99.90;;;;;;2055997;28;20222;-73
2021/07/02 05:18:50;;;;;;;2.90;1.40;;;11.20;99.90;;;;;;2063980;28;20864;-73
2021/07/02 05:19:50;;;;;;;0.93;0.93;;;11.30;99.90;;;;;;2064535;28;20281;-73